createdAt,value
2019-04-14T00:00:35.979Z,53.23
2019-04-14T00:03:06.611Z,51.76
2019-04-14T00:05:35.919Z,52.89
2019-04-14T00:08:05.187Z,53.69
2019-04-14T00:10:33.637Z,46.54
2019-04-14T00:13:02.529Z,44.18
2019-04-14T00:15:38.865Z,43.96
2019-04-14T00:18:01.057Z,49.60
2019-04-14T00:20:29.405Z,47.26
2019-04-14T00:22:57.734Z,48.88
2019-04-14T00:25:26.231Z,46.88
2019-04-14T00:27:54.661Z,50.11
2019-04-14T00:30:23.670Z,49.32
2019-04-14T00:32:57.415Z,50.16
2019-04-14T00:35:30.045Z,49.72
2019-04-14T00:38:17.248Z,47.38
2019-04-14T00:40:53.910Z,46.43
2019-04-14T00:43:24.467Z,48.02
2019-04-14T00:45:56.816Z,45.99
2019-04-14T00:48:26.163Z,44.90
2019-04-14T00:50:54.470Z,45.93
2019-04-14T00:53:22.928Z,47.42
2019-04-14T00:55:51.380Z,47.89
2019-04-14T00:58:19.637Z,48.39
2019-04-14T01:00:47.968Z,46.79
2019-04-14T01:03:16.248Z,48.34
2019-04-14T01:05:45.787Z,48.05
2019-04-14T01:08:14.306Z,48.75
2019-04-14T01:10:43.293Z,48.66
2019-04-14T01:13:12.779Z,46.52
2019-04-14T01:15:53.665Z,46.94
2019-04-14T01:18:12.546Z,48.30
2019-04-14T01:20:40.990Z,48.35
2019-04-14T01:23:10.518Z,47.84
2019-04-14T01:25:39.038Z,47.34
2019-04-14T01:28:07.280Z,46.55
2019-04-14T01:30:35.540Z,45.19
2019-04-14T01:33:03.968Z,44.58
2019-04-14T01:35:33.446Z,45.00
2019-04-14T01:38:01.884Z,44.99
2019-04-14T01:40:31.333Z,45.16
2019-04-14T01:42:59.795Z,44.43
2019-04-14T01:45:28.154Z,46.06
2019-04-14T01:47:57.489Z,46.70
2019-04-14T01:50:36.615Z,44.76
2019-04-14T01:53:07.553Z,46.93
2019-04-14T01:55:46.515Z,45.47
2019-04-14T01:58:16.479Z,44.56
2019-04-14T02:01:02.229Z,47.06
2019-04-14T02:03:30.502Z,45.90
2019-04-14T02:05:58.763Z,44.27
2019-04-14T02:08:28.309Z,44.94
2019-04-14T02:10:56.661Z,45.98
2019-04-14T02:13:24.967Z,44.52
2019-04-14T02:15:53.232Z,45.52
2019-04-14T02:18:22.830Z,43.85
2019-04-14T02:20:51.304Z,43.71
2019-04-14T02:23:19.619Z,44.89
2019-04-14T02:25:49.248Z,43.37
2019-04-14T02:28:17.811Z,43.35
2019-04-14T02:30:56.787Z,44.29
2019-04-14T02:38:47.332Z,46.17
2019-04-14T02:41:24.626Z,45.19
2019-04-14T02:43:49.339Z,43.80
2019-04-14T02:46:16.996Z,44.94
2019-04-14T02:51:13.816Z,44.55
2019-04-14T02:56:16.445Z,44.06
2019-04-14T02:58:45.945Z,44.05
2019-04-14T03:01:14.713Z,45.75
2019-04-14T03:03:43.102Z,45.52
2019-04-14T03:06:12.615Z,45.19
2019-04-14T03:08:52.036Z,45.16
2019-04-14T03:11:11.760Z,46.72
2019-04-14T03:13:45.415Z,44.85
2019-04-14T03:16:19.762Z,46.47
2019-04-14T03:21:36.373Z,44.49
2019-04-14T03:24:12.739Z,46.55
2019-04-14T03:26:45.110Z,45.92
2019-04-14T03:29:21.710Z,45.19
2019-04-14T03:32:01.398Z,44.48
2019-04-14T03:39:15.309Z,44.64
2019-04-14T03:41:50.652Z,44.80
2019-04-14T03:44:25.282Z,44.05
2019-04-14T03:46:50.769Z,41.72
2019-04-14T03:51:50.262Z,45.22
2019-04-14T03:54:10.940Z,44.08
2019-04-14T03:56:48.933Z,43.17
2019-04-14T03:59:17.755Z,43.33
2019-04-14T04:01:47.757Z,46.67
2019-04-14T04:04:16.532Z,45.85
2019-04-14T04:06:44.887Z,44.33
2019-04-14T04:09:15.026Z,45.89
2019-04-14T04:11:43.515Z,45.64
2019-04-14T04:14:11.850Z,42.52
2019-04-14T04:16:44.201Z,43.28
2019-04-14T04:19:29.987Z,44.34
2019-04-14T04:21:59.901Z,44.07
2019-04-14T04:24:45.465Z,43.41
2019-04-14T04:27:15.796Z,43.14
2019-04-14T04:29:54.842Z,42.16
2019-04-14T04:32:25.425Z,43.44
2019-04-14T04:35:13.092Z,44.30
2019-04-14T04:37:52.129Z,44.52
2019-04-14T04:40:31.334Z,44.34
2019-04-14T04:42:59.611Z,43.19
2019-04-14T04:45:27.881Z,43.19
2019-04-14T04:47:56.275Z,43.02
2019-04-14T04:50:24.538Z,44.48
2019-04-14T04:52:53.921Z,45.20
2019-04-14T04:55:22.471Z,43.83
2019-04-14T04:57:50.749Z,44.93
2019-04-14T05:00:19.940Z,43.87
2019-04-14T05:02:48.535Z,44.87
2019-04-14T05:05:45.410Z,44.71
2019-04-14T05:08:13.693Z,45.35
2019-04-14T05:10:46.414Z,43.72
2019-04-14T05:13:16.124Z,43.83
2019-04-14T05:15:46.592Z,44.74
2019-04-14T05:18:16.191Z,43.74
2019-04-14T05:20:44.479Z,45.44
2019-04-14T05:23:12.769Z,45.01
2019-04-14T05:25:41.088Z,46.05
2019-04-14T05:28:09.385Z,44.81
2019-04-14T05:30:37.660Z,43.46
2019-04-14T05:33:05.917Z,43.36
2019-04-14T05:35:34.216Z,43.80
2019-04-14T05:38:02.505Z,44.19
2019-04-14T05:40:32.149Z,45.20
2019-04-14T05:43:00.757Z,45.25
2019-04-14T05:45:29.162Z,45.77
2019-04-14T05:47:57.472Z,45.22
2019-04-14T05:50:27.124Z,44.52
2019-04-14T05:52:55.805Z,43.34
2019-04-14T05:55:24.259Z,43.12
2019-04-14T05:57:52.673Z,43.25
2019-04-14T06:00:21.288Z,43.75
2019-04-14T06:02:50.618Z,43.51
2019-04-14T06:05:19.093Z,43.45
2019-04-14T06:07:47.379Z,43.18
2019-04-14T06:10:16.032Z,44.49
2019-04-14T06:12:44.316Z,44.12
2019-04-14T06:15:12.858Z,43.78
2019-04-14T06:17:41.234Z,45.47
2019-04-14T06:20:09.776Z,45.28
2019-04-14T06:22:38.070Z,44.96
2019-04-14T06:25:06.777Z,44.35
2019-04-14T06:27:36.072Z,43.89
2019-04-14T06:30:08.449Z,45.90
2019-04-14T06:32:46.614Z,44.63
2019-04-14T06:35:22.066Z,44.36
2019-04-14T06:37:54.632Z,43.61
2019-04-14T06:40:24.539Z,43.67
2019-04-14T06:42:52.868Z,43.90
2019-04-14T06:45:21.124Z,44.52
2019-04-14T06:47:49.391Z,44.10
2019-04-14T06:50:17.655Z,44.10
2019-04-14T06:52:45.961Z,44.65
2019-04-14T06:55:14.219Z,43.79
2019-04-14T06:57:42.495Z,43.21
2019-04-14T07:00:11.028Z,43.17
2019-04-14T07:02:39.306Z,43.27
2019-04-14T07:05:07.668Z,42.61
2019-04-14T07:07:35.936Z,42.25
2019-04-14T07:10:05.444Z,42.70
2019-04-14T07:12:33.704Z,42.58
2019-04-14T07:15:02.010Z,43.00
2019-04-14T07:17:30.386Z,42.57
2019-04-14T07:20:02.190Z,41.31
2019-04-14T07:22:28.650Z,41.80
2019-04-14T07:24:56.909Z,43.31
2019-04-14T07:27:25.266Z,42.30
2019-04-14T07:30:01.160Z,41.24
2019-04-14T07:32:31.093Z,40.61
2019-04-14T07:35:09.633Z,40.36
2019-04-14T07:37:45.321Z,40.88
2019-04-14T07:40:21.198Z,40.98
2019-04-14T07:43:03.085Z,40.54
2019-04-14T07:45:38.996Z,39.28
2019-04-14T07:48:25.003Z,39.96
2019-04-14T07:51:11.135Z,41.05
2019-04-14T07:53:41.042Z,42.44
2019-04-14T07:56:26.826Z,42.14
2019-04-14T07:58:59.713Z,40.94
2019-04-14T08:01:29.628Z,39.71
2019-04-14T08:04:02.503Z,40.63
2019-04-14T08:06:31.738Z,40.13
2019-04-14T08:09:00.021Z,39.36
2019-04-14T08:11:28.301Z,38.33
2019-04-14T08:13:56.581Z,39.19
2019-04-14T08:16:24.854Z,38.42
2019-04-14T08:18:53.114Z,38.39
2019-04-14T08:21:21.396Z,39.04
2019-04-14T08:23:49.666Z,39.97
2019-04-14T08:26:17.933Z,39.24
2019-04-14T08:28:46.289Z,39.39
2019-04-14T08:31:14.550Z,39.37
2019-04-14T08:33:42.920Z,39.81
2019-04-14T08:36:11.188Z,38.89
2019-04-14T08:38:39.468Z,39.03
2019-04-14T08:41:07.756Z,37.99
2019-04-14T08:43:40.602Z,38.90
2019-04-14T08:46:19.273Z,39.38
2019-04-14T08:48:49.245Z,38.93
2019-04-14T08:51:19.179Z,39.22
2019-04-14T08:53:51.495Z,39.45
2019-04-14T08:56:37.749Z,38.91
2019-04-14T08:59:23.860Z,37.64
2019-04-14T09:02:09.548Z,36.30
2019-04-14T09:04:45.364Z,36.91
2019-04-14T09:07:18.267Z,35.86
2019-04-14T09:09:57.024Z,36.74
2019-04-14T09:12:26.945Z,35.28
2019-04-14T09:14:57.203Z,35.19
2019-04-14T09:17:26.659Z,34.35
2019-04-14T09:19:54.945Z,34.11
2019-04-14T09:22:23.224Z,34.44
2019-04-14T09:24:51.499Z,34.30
2019-04-14T09:27:19.778Z,33.77
2019-04-14T09:29:48.061Z,34.15
2019-04-14T09:32:16.505Z,33.69
2019-04-14T09:34:44.773Z,32.98
2019-04-14T09:37:13.063Z,33.73
2019-04-14T09:39:41.329Z,32.90
2019-04-14T09:42:09.616Z,32.55
2019-04-14T09:44:37.903Z,32.28
2019-04-14T09:47:06.158Z,33.42
2019-04-14T09:49:34.441Z,30.93
2019-04-14T09:52:02.780Z,31.87
2019-04-14T09:54:31.056Z,31.69
2019-04-14T09:56:59.332Z,30.94
2019-04-14T09:59:27.626Z,31.59
2019-04-14T10:01:56.319Z,30.48
2019-04-14T10:04:24.589Z,30.91
2019-04-14T10:06:52.855Z,30.72
2019-04-14T10:09:21.122Z,30.25
2019-04-14T10:11:52.532Z,29.85
2019-04-14T10:14:19.405Z,30.10
2019-04-14T10:16:47.729Z,30.27
2019-04-14T10:19:16.071Z,29.21
2019-04-14T10:21:44.400Z,29.95
2019-04-14T10:24:12.630Z,29.38
2019-04-14T10:26:41.238Z,28.74
2019-04-14T10:29:09.511Z,28.54
2019-04-14T10:31:37.787Z,28.72
2019-04-14T10:34:06.070Z,29.05
2019-04-14T10:36:34.347Z,28.60
2019-04-14T10:39:03.731Z,28.84
2019-04-14T10:41:31.977Z,28.83
2019-04-14T10:44:00.316Z,30.00
2019-04-14T10:46:28.586Z,28.99
2019-04-14T10:48:56.884Z,29.98
2019-04-14T10:51:30.384Z,30.13
2019-04-14T10:53:55.157Z,29.20
2019-04-14T10:56:23.459Z,28.31
2019-04-14T10:58:51.737Z,29.40
2019-04-14T11:01:20.024Z,28.77
2019-04-14T11:03:48.318Z,28.53
2019-04-14T11:06:26.721Z,28.35
2019-04-14T11:08:54.987Z,28.80
2019-04-14T11:11:23.245Z,30.97
2019-04-14T11:13:51.510Z,30.26
2019-04-14T11:16:19.772Z,29.44
2019-04-14T11:18:48.055Z,28.50
2019-04-14T11:21:16.610Z,27.75
2019-04-14T11:23:44.912Z,28.56
2019-04-14T11:26:13.186Z,28.17
2019-04-14T11:28:41.538Z,27.00
2019-04-14T11:31:10.182Z,27.06
2019-04-14T11:33:56.234Z,27.60
2019-04-14T11:36:42.211Z,25.65
2019-04-14T11:39:12.362Z,26.88
2019-04-14T11:41:40.704Z,26.04
2019-04-14T11:44:09.169Z,26.25
2019-04-14T11:46:37.507Z,26.36
2019-04-14T11:49:05.883Z,26.11
2019-04-14T11:51:34.220Z,24.54
2019-04-14T11:54:02.479Z,24.10
2019-04-14T11:56:30.766Z,24.41
2019-04-14T11:58:59.012Z,23.65
2019-04-14T12:01:45.429Z,24.69
2019-04-14T12:04:21.482Z,25.73
2019-04-14T12:07:07.786Z,24.31
2019-04-14T12:09:37.715Z,24.00
2019-04-14T12:12:07.619Z,24.62
2019-04-14T12:14:35.884Z,23.80
2019-04-14T12:17:04.182Z,22.52
2019-04-14T12:19:32.450Z,22.76
2019-04-14T12:22:08.312Z,21.28
2019-04-14T12:24:30.751Z,22.66
2019-04-14T12:26:59.020Z,22.62
2019-04-14T12:29:28.259Z,20.78
2019-04-14T12:31:57.450Z,20.72
2019-04-14T12:34:25.829Z,21.72
2019-04-14T12:36:54.103Z,21.44
2019-04-14T12:39:23.804Z,20.10
2019-04-14T12:41:59.988Z,20.71
2019-04-14T12:44:32.686Z,21.28
2019-04-14T12:47:02.588Z,21.49
2019-04-14T12:49:38.659Z,20.53
2019-04-14T12:52:21.640Z,20.33
2019-04-14T12:54:47.625Z,18.99
2019-04-14T12:57:17.523Z,19.12
2019-04-14T12:59:45.862Z,19.52
2019-04-14T13:02:15.768Z,19.35
2019-04-14T13:04:44.047Z,19.66
2019-04-14T13:07:12.386Z,20.44
2019-04-14T13:09:40.683Z,19.93
2019-04-14T13:12:10.468Z,21.67
2019-04-14T13:14:38.861Z,22.27
2019-04-14T13:17:07.139Z,20.97
2019-04-14T13:19:35.416Z,19.23
2019-04-14T13:22:03.692Z,18.34
2019-04-14T13:24:31.983Z,18.51
2019-04-14T13:27:00.253Z,19.42
2019-04-14T13:29:28.535Z,18.51
2019-04-14T13:31:56.807Z,19.41
2019-04-14T13:34:25.088Z,19.24
2019-04-14T13:36:53.379Z,17.94
2019-04-14T13:39:21.656Z,17.34
2019-04-14T13:41:49.925Z,17.91
2019-04-14T13:44:18.222Z,18.30
2019-04-14T13:46:46.477Z,17.10
2019-04-14T13:49:14.763Z,16.85
2019-04-14T13:51:43.026Z,18.93
2019-04-14T13:54:11.319Z,17.71
2019-04-14T13:56:39.594Z,18.06
2019-04-14T13:59:07.859Z,18.37
2019-04-14T14:01:36.148Z,17.02
2019-04-14T14:04:04.562Z,17.70
2019-04-14T14:06:32.823Z,19.59
2019-04-14T14:09:01.106Z,18.15
2019-04-14T14:11:32.440Z,17.56
2019-04-14T14:14:02.538Z,18.63
2019-04-14T14:16:41.097Z,18.33
2019-04-14T14:19:13.446Z,18.07
2019-04-14T14:21:52.345Z,18.93
2019-04-14T14:27:09.976Z,18.71
2019-04-14T14:29:38.261Z,19.00
2019-04-14T14:32:08.249Z,19.47
2019-04-14T14:34:36.528Z,19.12
2019-04-14T14:37:04.793Z,19.81
2019-04-14T14:39:33.463Z,19.75
2019-04-14T14:42:01.754Z,20.07
2019-04-14T14:44:31.687Z,20.20
2019-04-14T14:47:01.596Z,19.46
2019-04-14T14:49:49.889Z,20.92
2019-04-14T14:52:21.872Z,20.33
2019-04-14T14:54:50.138Z,19.90
2019-04-14T14:57:18.417Z,20.63
2019-04-14T14:59:46.702Z,20.13
2019-04-14T15:02:14.983Z,21.47
2019-04-14T15:04:43.253Z,20.77
2019-04-14T15:07:11.532Z,20.65
2019-04-14T15:09:39.885Z,20.51
2019-04-14T15:12:08.163Z,20.99
2019-04-14T15:14:36.442Z,21.79
2019-04-14T15:17:08.300Z,20.75
2019-04-14T15:19:35.616Z,21.64
2019-04-14T15:22:04.155Z,20.85
2019-04-14T15:24:37.299Z,20.88
2019-04-14T15:27:05.654Z,19.76
2019-04-14T15:29:33.918Z,19.64
2019-04-14T15:32:02.195Z,20.86
2019-04-14T15:34:30.469Z,21.74
2019-04-14T15:36:58.938Z,21.98
2019-04-14T15:39:27.277Z,20.67
2019-04-14T15:41:55.524Z,19.40
2019-04-14T15:44:23.839Z,19.62
2019-04-14T15:46:52.098Z,21.29
2019-04-14T15:49:20.400Z,20.68
2019-04-14T15:51:48.665Z,20.55
2019-04-14T15:54:16.934Z,20.32
2019-04-14T15:57:04.813Z,20.65
2019-04-14T15:59:42.291Z,19.29
2019-04-14T16:02:12.210Z,19.57
2019-04-14T16:04:50.854Z,20.85
2019-04-14T16:07:26.285Z,19.65
2019-04-14T16:10:01.726Z,19.11
2019-04-14T16:12:34.169Z,19.19
2019-04-14T16:15:06.738Z,19.52
2019-04-14T16:17:39.587Z,19.72
2019-04-14T16:20:09.726Z,19.58
2019-04-14T16:22:39.059Z,19.08
2019-04-14T16:25:07.626Z,19.97
2019-04-14T16:27:37.612Z,23.06
2019-04-14T16:30:07.804Z,23.11
2019-04-14T16:32:52.918Z,21.99
2019-04-14T16:35:22.863Z,22.82
2019-04-14T16:37:51.137Z,25.20
2019-04-14T16:40:19.518Z,26.07
2019-04-14T16:42:47.771Z,25.71
2019-04-14T16:45:17.602Z,24.52
2019-04-14T16:47:45.862Z,24.13
2019-04-14T16:50:14.210Z,24.79
2019-04-14T16:52:47.144Z,25.95
2019-04-14T16:55:17.103Z,26.48
2019-04-14T16:57:49.965Z,26.52
2019-04-14T17:02:56.825Z,27.11
2019-04-14T17:05:25.087Z,27.80
2019-04-14T17:07:53.778Z,27.38
2019-04-14T17:10:22.319Z,30.22
2019-04-14T17:12:55.536Z,28.09
2019-04-14T17:15:40.468Z,28.46
2019-04-14T17:18:28.547Z,27.46
2019-04-14T17:21:14.585Z,28.94
2019-04-14T17:23:47.342Z,28.90
2019-04-14T17:26:35.310Z,28.60
2019-04-14T17:29:10.960Z,28.56
2019-04-14T17:31:58.739Z,29.18
2019-04-14T17:34:31.470Z,30.63
2019-04-14T17:37:10.203Z,29.94
2019-04-14T17:39:40.067Z,29.36
2019-04-14T17:42:28.308Z,29.57
2019-04-14T17:45:04.191Z,29.68
2019-04-14T17:47:40.113Z,29.51
2019-04-14T17:50:10.173Z,29.84
2019-04-14T17:52:42.977Z,31.36
2019-04-14T17:55:12.889Z,31.22
2019-04-14T17:57:58.968Z,30.65
2019-04-14T18:00:31.833Z,31.59
2019-04-14T18:03:04.161Z,30.44
2019-04-14T18:05:49.946Z,30.44
2019-04-14T18:08:28.411Z,30.47
2019-04-14T18:11:06.978Z,29.79
2019-04-14T18:13:36.998Z,30.91
2019-04-14T18:16:23.456Z,30.65
2019-04-14T18:19:02.388Z,29.82
2019-04-14T18:21:30.649Z,29.93
2019-04-14T18:23:59.060Z,29.21
2019-04-14T18:26:27.314Z,29.45
2019-04-14T18:28:59.914Z,30.26
2019-04-14T18:31:32.892Z,29.57
2019-04-14T18:34:12.492Z,29.73
2019-04-14T18:37:00.503Z,29.81
2019-04-14T18:39:42.717Z,29.88
2019-04-14T18:45:12.585Z,30.92
2019-04-14T18:47:51.472Z,31.43
2019-04-14T18:50:37.819Z,31.51
2019-04-14T18:53:07.779Z,32.29
2019-04-14T18:55:47.001Z,31.95
2019-04-14T18:58:33.276Z,31.33
2019-04-14T19:01:18.859Z,30.98
2019-04-14T19:03:47.917Z,31.31
2019-04-14T19:06:16.168Z,31.14
2019-04-14T19:08:44.835Z,30.97
2019-04-14T19:11:15.170Z,31.79
2019-04-14T19:13:45.262Z,31.57
2019-04-14T19:16:15.292Z,31.85
2019-04-14T19:18:45.210Z,32.27
2019-04-14T19:21:15.169Z,32.03
2019-04-14T19:23:46.303Z,32.19
2019-04-14T19:26:13.562Z,32.17
2019-04-14T19:28:41.839Z,31.79
2019-04-14T19:31:10.238Z,31.57
2019-04-14T19:33:38.501Z,31.53
2019-04-14T19:36:06.788Z,30.72
2019-04-14T19:38:35.048Z,31.04
2019-04-14T19:41:03.328Z,31.50
2019-04-14T19:43:31.607Z,32.97
2019-04-14T19:45:59.883Z,33.50
2019-04-14T19:48:28.212Z,34.65
2019-04-14T19:50:56.656Z,32.68
2019-04-14T19:53:24.952Z,32.96
2019-04-14T19:55:53.254Z,32.84
2019-04-14T19:58:21.572Z,33.33
2019-04-14T20:00:49.887Z,32.92
2019-04-14T20:03:18.148Z,34.20
2019-04-14T20:05:46.409Z,33.68
2019-04-14T20:08:14.703Z,33.98
2019-04-14T20:10:42.988Z,33.30
2019-04-14T20:13:11.230Z,33.35
2019-04-14T20:15:57.318Z,33.68
2019-04-14T20:18:43.403Z,33.84
2019-04-14T20:21:29.742Z,33.24
2019-04-14T20:24:08.557Z,34.07
2019-04-14T20:26:38.475Z,34.47
2019-04-14T20:29:10.854Z,34.31
2019-04-14T20:31:40.766Z,33.82
2019-04-14T20:34:09.049Z,34.63
2019-04-14T20:36:37.338Z,35.99
2019-04-14T20:39:09.284Z,34.93
2019-04-14T20:41:37.631Z,35.33
2019-04-14T20:44:05.908Z,35.18
2019-04-14T20:46:34.168Z,34.89
2019-04-14T20:49:02.463Z,35.94
2019-04-14T20:51:30.734Z,34.44
2019-04-14T20:53:59.064Z,34.23
2019-04-14T20:56:27.533Z,34.38
2019-04-14T20:58:55.790Z,34.44
2019-04-14T21:01:25.736Z,33.98
2019-04-14T21:04:12.028Z,35.17
2019-04-14T21:06:44.790Z,34.26
2019-04-14T21:09:14.707Z,35.45
2019-04-14T21:11:53.811Z,34.89
2019-04-14T21:14:40.084Z,35.24
2019-04-14T21:17:10.087Z,35.22
2019-04-14T21:19:45.956Z,34.99
2019-04-14T21:22:21.821Z,35.28
2019-04-14T21:24:51.759Z,35.03
2019-04-14T21:27:21.646Z,34.50
2019-04-14T21:29:51.664Z,35.54
2019-04-14T21:32:21.602Z,35.00
2019-04-14T21:35:03.575Z,34.90
2019-04-14T21:37:42.410Z,35.82
2019-04-14T21:40:17.909Z,35.41
2019-04-14T21:42:46.306Z,34.19
2019-04-14T21:45:14.660Z,35.31
2019-04-14T21:47:42.928Z,34.66
2019-04-14T21:50:11.568Z,35.02
2019-04-14T21:52:49.648Z,34.95
2019-04-14T21:55:17.174Z,36.64
2019-04-14T21:57:47.089Z,35.11
2019-04-14T22:00:35.069Z,35.17
2019-04-14T22:03:19.831Z,34.92
2019-04-14T22:05:52.695Z,36.16
2019-04-14T22:08:28.668Z,36.13
2019-04-14T22:10:58.575Z,36.95
2019-04-14T22:13:26.890Z,35.78
2019-04-14T22:15:55.157Z,35.55
2019-04-14T22:18:23.410Z,36.41
2019-04-14T22:20:51.738Z,36.92
2019-04-14T22:23:19.938Z,36.56
2019-04-14T22:25:48.224Z,36.86
2019-04-14T22:28:16.492Z,36.58
2019-04-14T22:30:44.750Z,36.23
2019-04-14T22:33:13.021Z,36.74
2019-04-14T22:35:41.287Z,37.79
2019-04-14T22:38:09.572Z,37.71
2019-04-14T22:40:37.867Z,36.63
2019-04-14T22:43:06.086Z,37.55
2019-04-14T22:45:34.994Z,35.85
2019-04-14T22:48:03.245Z,34.73
2019-04-14T22:50:31.553Z,36.34
2019-04-14T22:52:59.866Z,37.39
2019-04-14T22:55:28.129Z,38.30
2019-04-14T22:57:56.447Z,38.66
2019-04-14T23:00:26.780Z,39.43
2019-04-14T23:03:02.123Z,38.76
2019-04-14T23:05:49.802Z,38.33
2019-04-14T23:08:19.706Z,37.53
2019-04-14T23:11:05.666Z,38.50
2019-04-14T23:13:47.518Z,37.62
2019-04-14T23:16:26.093Z,37.93
2019-04-14T23:19:01.879Z,38.03
2019-04-14T23:21:31.777Z,37.51
2019-04-14T23:24:07.408Z,38.08
2019-04-14T23:26:35.664Z,38.01
2019-04-14T23:29:03.932Z,37.70
2019-04-14T23:31:32.183Z,37.97
2019-04-14T23:34:00.454Z,37.82
2019-04-14T23:36:28.728Z,38.36
2019-04-14T23:38:56.992Z,39.06
2019-04-14T23:41:25.330Z,39.27
2019-04-14T23:43:54.020Z,38.60
2019-04-14T23:46:22.258Z,38.24
2019-04-14T23:48:50.543Z,39.25
2019-04-14T23:51:18.810Z,39.47
2019-04-14T23:53:47.080Z,38.85
2019-04-14T23:56:15.336Z,38.82
2019-04-14T23:58:43.599Z,37.84
